Naples, FL (34101)

12:14 AM EDT on July 29, 2016 (GMT -0400)
Flamingo Estates | | Change Station

Elev 23 ft 26.14 °N, 81.75 °W | Updated 18 seconds ago

Mostly Cloudy
Mostly Cloudy
75.6 °F
Feels Like 74 °F
N
0.0
Wind Variable Wind from SW

Today
High -- | Low -- °F
--% Chance of Precip.
Yesterday
High -- | Low -- °F
Precip. -- in
Pressure 30.05 in
Visibility 10.0 miles
Clouds Mostly Cloudy 3300 ft
Heat Index 74 °F
Dew Point 75 °F
Humidity 97%
Rainfall 0.00 in
Snow Depth Not available.
6:51 AM 8:15 PM
Waning Crescent, 26% visible
METAR KAPF 290353Z AUTO 07004KT 10SM BKN033 26/24 A3005 RMK AO2 SLP174 T02610244
Pressure 30.05 in
Visibility 10.0 miles
Clouds Mostly Cloudy 3300 ft
Heat Index 74 °F
Dew Point 75 °F
Humidity 97%
Rainfall 0.00 in
Snow Depth Not available.
6:51 AM 8:15 PM
Waning Crescent, 26% visible
METAR KAPF 290353Z AUTO 07004KT 10SM BKN033 26/24 A3005 RMK AO2 SLP174 T02610244

10-Day Weather Forecast

Almanac

Astronomy

Jul. 29, 2016 Rise Set
Actual Time
Civil Twilight
Nautical Twilight
Astronomical Twilight
Moon
Length of Visible Light
Length of Day
Tomorrow will be .
, % of the Moon is Illuminated

Today's Extremes

State Highs State Lows

Community

WunderPhotos

Upload Photos

1,928,293 photos uploaded!

WunderBlog® & News

Nearby

Air Quality

  Air Quality AQ Index Pollutant
Not available.

Snow Depth

Station Depth Elevation

Earthquake Activity

City Distance Mag. Time & Date
Minimum magnitude displayed is 2.5.

Coastal Water Temperatures

Place Temperature

Stations

Nearby Weather Stations

Station Location Temp. Windchill Dew Point Humidity Wind Precip. Elev Updated Type
                   

Watches & Warnings

There are currently no watches in effect.